首页
METAR-TAF:

METAR-TAF

机场 :

Durant, 奧克拉荷馬州, 美国

纬度: 33-56-32N, 经度: 096-23-40W, 海拔: 213米

当前天气观测

该预报发布于32分钟前的16:15 UTC
静风
温度 25°C
湿度 79%
气压 1018 hPa
能見度: 16.1公里
多云层高于1000英尺
阴天层高于1700英尺

METAR: KDUA 221615Z AUTO 00000KT 10SM BKN010 OVC017 25/21 A3006 RMK AO2

时间: 11:47 (16:47 UTC)

预报

该预报发布于2小时和21分钟前的14:26 UTC
预报有效从22日的 14点(UTC)到 23日的 12点(UTC)
风速5节,风向
能見度: 10公里
散云层高于700英尺
阴天层高于1200英尺
短暂存在
从 22日的 14点(UTC)到 22日的 17点(UTC)
多云层高于700英尺
从 22日的 1900点(UTC)
风速5节,风向东北
能見度: 10公里
多云层高于4000英尺
从 23日的 0100点(UTC)
风速3节,风向多变
能見度: 10公里
散云层高于5000英尺
散云层高于25000英尺

TAF: KDUA 221426Z 2214/2312 08005KT P6SM SCT007 OVC012 TEMPO 2214/2217 BKN007 FM221900 04005KT P6SM BKN040 FM230100 VRB03KT P6SM SCT050 SCT250

超过4000个机场的气象观测和天气预报(METAR&TAF报告)。

可查询的气象台以黄色和红色小点在地图上表示。

将鼠标移到小点上方,可查看气象台名称。

然后点击查看天气观测和预报。

如需切换地图:点击带黑十字的绿色按钮放大地图;点击带横线的绿色按钮缩小地图;或者点击绿色箭头查看邻近地区的地图。


METAR-TAF: